createdAt,value
2023-04-20T00:00:28.380Z,48.78
2023-04-20T00:03:18.463Z,54.95
2023-04-20T00:05:46.056Z,58.88
2023-04-20T00:08:13.366Z,52.28
2023-04-20T00:10:41.175Z,58.65
2023-04-20T00:13:08.525Z,47.97
2023-04-20T00:15:36.064Z,55.17
2023-04-20T00:18:03.426Z,56.25
2023-04-20T00:20:31.090Z,50.08
2023-04-20T00:22:58.308Z,50.95
2023-04-20T00:25:25.870Z,54.30
2023-04-20T00:27:53.191Z,52.45
2023-04-20T00:30:20.914Z,51.10
2023-04-20T00:32:48.177Z,62.10
2023-04-20T00:35:15.955Z,61.17
2023-04-20T00:37:43.233Z,60.03
2023-04-20T00:40:11.323Z,50.83
2023-04-20T00:42:40.760Z,59.90
2023-04-20T00:45:09.667Z,56.85
2023-04-20T00:47:36.982Z,73.05
2023-04-20T00:50:05.190Z,79.25
2023-04-20T00:52:33.763Z,84.30
2023-04-20T00:55:03.519Z,80.28
2023-04-20T00:57:32.485Z,79.63
2023-04-20T01:00:01.559Z,72.15
2023-04-20T01:02:29.061Z,73.25
2023-04-20T01:04:56.726Z,85.70
2023-04-20T01:07:24.140Z,68.90
2023-04-20T01:09:51.724Z,69.00
2023-04-20T01:12:19.033Z,83.82
2023-04-20T01:14:46.554Z,86.50
2023-04-20T01:17:15.173Z,65.57
2023-04-20T01:19:44.823Z,52.47
2023-04-20T01:22:20.313Z,68.88
2023-04-20T01:24:48.330Z,63.13
2023-04-20T01:27:17.168Z,63.33
2023-04-20T01:29:45.939Z,45.25
2023-04-20T01:32:13.690Z,46.03
2023-04-20T01:34:41.554Z,63.95
2023-04-20T01:37:09.019Z,82.00
2023-04-20T01:39:39.252Z,65.97
2023-04-20T01:42:07.222Z,71.15
2023-04-20T01:44:34.965Z,70.72
2023-04-20T01:47:02.385Z,71.50
2023-04-20T01:49:30.108Z,63.47
2023-04-20T01:51:57.328Z,73.05
2023-04-20T01:54:24.912Z,76.18
2023-04-20T01:56:52.282Z,85.63
2023-04-20T01:59:19.987Z,73.22
2023-04-20T02:01:47.427Z,69.97
2023-04-20T02:04:15.042Z,58.25
2023-04-20T02:06:42.431Z,63.33
2023-04-20T02:09:10.226Z,79.10
2023-04-20T02:11:37.504Z,59.67
2023-04-20T02:14:04.970Z,63.50
2023-04-20T02:16:32.272Z,50.38
2023-04-20T02:18:59.848Z,62.00
2023-04-20T02:21:28.137Z,62.88
2023-04-20T02:23:55.759Z,56.42
2023-04-20T02:26:23.810Z,60.67
2023-04-20T02:28:51.347Z,63.05
2023-04-20T02:31:18.731Z,57.17
2023-04-20T02:33:47.860Z,56.58
2023-04-20T02:36:15.351Z,59.13
2023-04-20T02:38:42.874Z,61.30
2023-04-20T02:41:10.191Z,58.83
2023-04-20T02:43:37.748Z,55.55
2023-04-20T02:46:05.213Z,56.97
2023-04-20T02:48:32.829Z,65.82
2023-04-20T02:51:00.140Z,69.55
2023-04-20T02:53:27.720Z,59.42
2023-04-20T02:55:54.946Z,57.05
2023-04-20T02:58:22.402Z,59.97
2023-04-20T03:00:49.660Z,57.58
2023-04-20T03:03:20.147Z,58.97
2023-04-20T03:05:47.521Z,61.50
2023-04-20T03:08:15.390Z,61.10
2023-04-20T03:10:42.870Z,61.67
2023-04-20T03:13:10.823Z,60.17
2023-04-20T03:15:38.141Z,64.25
2023-04-20T03:18:05.873Z,65.00
2023-04-20T03:20:33.156Z,58.72
2023-04-20T03:23:00.864Z,50.63
2023-04-20T03:25:29.639Z,56.03
2023-04-20T03:27:57.182Z,57.95
2023-04-20T03:30:25.288Z,59.22
2023-04-20T03:32:53.012Z,59.17
2023-04-20T03:35:21.111Z,50.15
2023-04-20T03:37:48.649Z,50.00
2023-04-20T03:40:16.006Z,61.97
2023-04-20T03:42:43.592Z,49.88
2023-04-20T03:45:11.993Z,53.72
2023-04-20T03:47:39.686Z,54.25
2023-04-20T03:50:08.014Z,52.22
2023-04-20T03:52:35.735Z,47.95
2023-04-20T03:55:04.127Z,62.30
2023-04-20T03:57:34.199Z,58.67
2023-04-20T04:00:01.426Z,51.97
2023-04-20T04:02:29.089Z,51.08
2023-04-20T04:04:56.852Z,69.57
2023-04-20T04:07:24.426Z,60.33
2023-04-20T04:09:51.655Z,46.72
2023-04-20T04:12:19.227Z,51.28
2023-04-20T04:14:46.649Z,46.53
2023-04-20T04:17:15.054Z,48.30
2023-04-20T04:19:43.779Z,53.40
2023-04-20T04:22:11.389Z,46.88
2023-04-20T04:24:39.145Z,47.97
2023-04-20T04:27:07.091Z,47.92
2023-04-20T04:29:38.720Z,47.28
2023-04-20T04:32:06.445Z,47.13
2023-04-20T04:34:34.863Z,47.20
2023-04-20T04:37:02.569Z,45.17
2023-04-20T04:39:30.366Z,46.03
2023-04-20T04:41:57.938Z,51.85
2023-04-20T04:44:26.176Z,55.60
2023-04-20T04:46:53.704Z,49.72
2023-04-20T04:49:21.640Z,52.97
2023-04-20T04:51:49.215Z,50.00
2023-04-20T04:54:16.436Z,51.80
2023-04-20T04:56:43.961Z,51.08
2023-04-20T04:59:11.315Z,48.10
2023-04-20T05:01:38.870Z,49.33
2023-04-20T05:04:06.303Z,38.63
2023-04-20T05:06:34.138Z,49.58
2023-04-20T05:09:01.454Z,43.72
2023-04-20T05:11:29.035Z,50.53
2023-04-20T05:13:56.317Z,50.83
2023-04-20T05:16:23.914Z,46.85
2023-04-20T05:18:51.240Z,47.22
2023-04-20T05:21:18.782Z,58.17
2023-04-20T05:23:46.146Z,48.40
2023-04-20T05:26:13.815Z,44.72
2023-04-20T05:28:41.033Z,45.20
2023-04-20T05:31:08.548Z,42.10
2023-04-20T05:33:35.827Z,41.55
2023-04-20T05:36:04.041Z,49.92
2023-04-20T05:38:31.343Z,42.47
2023-04-20T05:40:58.829Z,45.08
2023-04-20T05:43:26.279Z,47.17
2023-04-20T05:45:53.934Z,43.75
2023-04-20T05:48:21.539Z,48.92
2023-04-20T05:50:49.060Z,45.08
2023-04-20T05:53:16.336Z,42.78
2023-04-20T05:55:43.839Z,45.28
2023-04-20T05:58:11.961Z,43.00
2023-04-20T06:00:39.532Z,44.13
2023-04-20T06:03:06.987Z,42.83
2023-04-20T06:05:34.795Z,40.25
2023-04-20T06:08:02.060Z,43.47
2023-04-20T06:10:32.557Z,43.72
2023-04-20T06:12:59.922Z,38.78
2023-04-20T06:15:27.515Z,37.92
2023-04-20T06:17:54.972Z,43.38
2023-04-20T06:20:23.103Z,36.83
2023-04-20T06:22:50.516Z,36.38
2023-04-20T06:25:18.141Z,38.80
2023-04-20T06:27:45.516Z,44.90
2023-04-20T06:30:14.004Z,36.47
2023-04-20T06:32:41.554Z,39.03
2023-04-20T06:35:09.639Z,34.72
2023-04-20T06:37:37.075Z,36.70
2023-04-20T06:40:08.552Z,41.95
2023-04-20T06:42:37.370Z,43.40
2023-04-20T06:45:07.168Z,40.28
2023-04-20T06:47:35.154Z,39.38
2023-04-20T06:50:09.277Z,44.42
2023-04-20T06:52:41.132Z,36.13
2023-04-20T06:55:09.786Z,35.55
2023-04-20T06:57:38.868Z,40.95
2023-04-20T07:00:09.843Z,32.63
2023-04-20T07:02:50.000Z,30.10
2023-04-20T07:05:18.943Z,25.65
2023-04-20T07:07:46.245Z,32.80
2023-04-20T07:10:15.862Z,36.42
2023-04-20T07:12:44.244Z,34.72
2023-04-20T07:15:12.883Z,33.67
2023-04-20T07:17:40.990Z,34.90
2023-04-20T07:20:09.526Z,37.10
2023-04-20T07:22:38.796Z,35.70
2023-04-20T07:25:09.682Z,34.78
2023-04-20T07:27:41.741Z,31.38
2023-04-20T07:30:10.789Z,37.70
2023-04-20T07:32:40.273Z,30.95
2023-04-20T07:35:09.359Z,34.65
2023-04-20T07:37:36.885Z,37.58
2023-04-20T07:40:06.965Z,42.00
2023-04-20T07:42:37.226Z,40.95
2023-04-20T07:45:11.238Z,38.95
2023-04-20T07:47:39.423Z,50.55
2023-04-20T07:50:08.260Z,40.97
2023-04-20T07:52:36.234Z,37.80
2023-04-20T07:55:05.224Z,38.60
2023-04-20T07:57:32.546Z,33.33
2023-04-20T08:00:00.296Z,36.45
2023-04-20T08:02:27.783Z,33.55
2023-04-20T08:04:55.711Z,32.28
2023-04-20T08:07:24.063Z,30.52
2023-04-20T08:09:51.617Z,30.50
2023-04-20T08:12:18.804Z,28.75
2023-04-20T08:14:46.336Z,27.60
2023-04-20T08:17:13.565Z,29.90
2023-04-20T08:19:43.699Z,30.08
2023-04-20T08:22:12.505Z,33.08
2023-04-20T08:24:40.091Z,28.67
2023-04-20T08:27:09.387Z,30.08
2023-04-20T08:29:39.033Z,28.23
2023-04-20T08:32:09.318Z,32.55
2023-04-20T08:34:37.237Z,34.75
2023-04-20T08:37:04.948Z,36.20
2023-04-20T08:39:32.900Z,33.78
2023-04-20T08:42:00.215Z,35.00
2023-04-20T08:44:27.786Z,35.28
2023-04-20T08:46:55.180Z,55.25
2023-04-20T08:49:23.410Z,32.10
2023-04-20T08:51:51.618Z,38.95
2023-04-20T08:54:19.383Z,26.55
2023-04-20T08:56:48.251Z,26.70
2023-04-20T08:59:17.085Z,26.20
2023-04-20T09:01:45.546Z,26.45
2023-04-20T09:04:25.814Z,22.85
2023-04-20T09:06:56.326Z,23.00
2023-04-20T09:09:25.743Z,20.10
2023-04-20T09:12:08.096Z,22.13
2023-04-20T09:14:47.572Z,26.15
2023-04-20T09:17:17.925Z,23.25
2023-04-20T09:19:53.609Z,21.95
2023-04-20T09:22:35.988Z,21.63
2023-04-20T09:25:17.557Z,21.63
2023-04-20T09:28:00.540Z,25.90
2023-04-20T09:30:43.830Z,20.02
2023-04-20T09:33:12.810Z,20.55
2023-04-20T09:35:51.074Z,20.50
2023-04-20T09:38:29.799Z,21.05
2023-04-20T09:41:02.886Z,21.52
2023-04-20T09:43:31.393Z,18.05
2023-04-20T09:46:00.136Z,20.27
2023-04-20T09:48:28.161Z,18.30
2023-04-20T09:50:57.213Z,14.38
2023-04-20T09:53:25.427Z,17.10
2023-04-20T09:55:53.112Z,11.00
2023-04-20T09:58:21.625Z,11.93
2023-04-20T10:00:50.580Z,12.63
2023-04-20T10:03:22.099Z,14.48
2023-04-20T10:05:51.656Z,12.35
2023-04-20T10:08:20.759Z,11.50
2023-04-20T10:10:51.494Z,11.10
2023-04-20T10:13:20.619Z,10.57
2023-04-20T10:15:48.474Z,10.05
2023-04-20T10:18:24.737Z,12.60
2023-04-20T10:21:09.623Z,14.90
2023-04-20T10:23:51.641Z,16.85
2023-04-20T10:26:19.454Z,17.20
2023-04-20T10:28:47.058Z,14.52
2023-04-20T10:31:17.045Z,13.95
2023-04-20T10:33:55.906Z,14.88
2023-04-20T10:36:34.444Z,15.95
2023-04-20T10:39:05.059Z,17.23
2023-04-20T10:41:32.682Z,13.95
2023-04-20T10:44:09.791Z,13.45
2023-04-20T10:46:37.747Z,9.05
2023-04-20T10:49:05.184Z,11.18
2023-04-20T10:51:32.813Z,8.80
2023-04-20T10:54:07.856Z,9.57
2023-04-20T10:56:42.649Z,10.18
2023-04-20T11:01:46.767Z,16.70
2023-04-20T11:04:18.373Z,13.43
2023-04-20T11:06:48.571Z,12.73
2023-04-20T11:09:26.798Z,11.77
2023-04-20T11:12:09.246Z,11.88
2023-04-20T11:14:50.196Z,10.25
2023-04-20T11:17:18.016Z,11.23
2023-04-20T11:19:46.824Z,12.82
2023-04-20T11:22:23.535Z,12.82
2023-04-20T11:24:50.826Z,13.20
2023-04-20T11:27:24.870Z,10.82
2023-04-20T11:29:59.796Z,12.10
2023-04-20T11:32:27.825Z,11.43
2023-04-20T11:35:06.505Z,11.23
2023-04-20T11:37:51.686Z,12.40
2023-04-20T11:40:19.807Z,10.93
2023-04-20T11:42:47.419Z,12.95
2023-04-20T11:45:14.694Z,15.18
2023-04-20T11:47:42.362Z,11.05
2023-04-20T11:50:11.739Z,9.35
2023-04-20T11:52:39.366Z,10.18
2023-04-20T11:55:07.437Z,9.75
2023-04-20T11:57:35.086Z,6.63
2023-04-20T12:00:02.480Z,7.80
2023-04-20T12:02:30.157Z,6.38
2023-04-20T12:04:57.833Z,11.57
2023-04-20T12:07:25.452Z,9.75
2023-04-20T12:09:52.758Z,9.48
2023-04-20T12:12:20.443Z,10.27
2023-04-20T12:14:47.711Z,10.38
2023-04-20T12:17:15.270Z,9.70
2023-04-20T12:19:42.533Z,9.52
2023-04-20T12:22:10.207Z,10.82
2023-04-20T12:24:37.416Z,10.75
2023-04-20T12:27:06.166Z,14.15
2023-04-20T12:29:33.413Z,10.80
2023-04-20T12:32:01.005Z,12.07
2023-04-20T12:34:28.360Z,16.38
2023-04-20T12:36:55.971Z,11.52
2023-04-20T12:39:23.391Z,12.80
2023-04-20T12:41:51.015Z,13.27
2023-04-20T12:44:18.544Z,10.65
2023-04-20T12:46:46.514Z,10.13
2023-04-20T12:49:13.856Z,17.23
2023-04-20T12:51:41.541Z,13.32
2023-04-20T12:54:08.945Z,15.13
2023-04-20T12:56:36.620Z,15.85
2023-04-20T12:59:04.120Z,12.27
2023-04-20T13:01:31.726Z,12.48
2023-04-20T13:03:59.413Z,9.02
2023-04-20T13:06:28.103Z,12.23
2023-04-20T13:08:55.530Z,12.63
2023-04-20T13:11:23.867Z,9.85
2023-04-20T13:13:51.892Z,11.02
2023-04-20T13:16:19.522Z,8.70
2023-04-20T13:18:46.984Z,8.32
2023-04-20T13:21:14.558Z,12.38
2023-04-20T13:23:41.858Z,10.27
2023-04-20T13:26:09.843Z,9.32
2023-04-20T13:28:37.887Z,9.98
2023-04-20T13:31:05.781Z,10.02
2023-04-20T13:33:33.833Z,9.20
2023-04-20T13:36:01.496Z,11.68
2023-04-20T13:38:28.779Z,7.03
2023-04-20T13:40:56.855Z,8.45
2023-04-20T13:43:24.124Z,8.45
2023-04-20T13:45:51.743Z,7.32
2023-04-20T13:48:19.186Z,7.78
2023-04-20T13:50:47.531Z,11.00
2023-04-20T13:53:14.950Z,8.77
2023-04-20T13:55:42.691Z,9.70
2023-04-20T13:58:09.946Z,10.38
2023-04-20T14:00:37.507Z,10.50
2023-04-20T14:03:06.301Z,5.28
2023-04-20T14:05:34.116Z,10.15
2023-04-20T14:08:01.784Z,5.85
2023-04-20T14:10:29.727Z,5.50
2023-04-20T14:12:57.488Z,6.57
2023-04-20T14:15:25.348Z,7.32
2023-04-20T14:17:53.074Z,10.13
2023-04-20T14:20:21.364Z,4.95
2023-04-20T14:22:48.753Z,5.50
2023-04-20T14:25:16.297Z,7.03
2023-04-20T14:27:43.557Z,6.60
2023-04-20T14:30:12.668Z,8.48
2023-04-20T14:32:41.230Z,10.20
2023-04-20T14:35:09.416Z,8.07
2023-04-20T14:37:36.734Z,7.18
2023-04-20T14:40:07.271Z,7.78
2023-04-20T14:42:34.525Z,9.40
2023-04-20T14:45:02.097Z,8.32
2023-04-20T14:47:29.389Z,7.07
2023-04-20T14:49:57.132Z,6.68
2023-04-20T14:52:24.519Z,7.53
2023-04-20T14:54:52.087Z,8.30
2023-04-20T14:57:19.474Z,7.97
2023-04-20T14:59:47.000Z,7.22
2023-04-20T15:02:14.405Z,13.68
2023-04-20T15:04:42.347Z,9.63
2023-04-20T15:07:10.021Z,17.70
2023-04-20T15:09:37.740Z,7.97
2023-04-20T15:12:05.019Z,8.90
2023-04-20T15:14:33.225Z,11.13
2023-04-20T15:17:00.537Z,6.85
2023-04-20T15:19:28.112Z,10.25
2023-04-20T15:21:55.394Z,9.07
2023-04-20T15:24:22.916Z,10.13
2023-04-20T15:26:50.413Z,9.23
2023-04-20T15:29:18.101Z,5.43
2023-04-20T15:31:46.958Z,5.95
2023-04-20T15:34:17.249Z,7.13
2023-04-20T15:36:45.087Z,7.28
2023-04-20T15:39:13.176Z,5.20
2023-04-20T15:41:40.678Z,6.57
2023-04-20T15:44:08.361Z,9.38
2023-04-20T15:46:37.900Z,7.10
2023-04-20T15:49:05.639Z,6.95
2023-04-20T15:51:32.970Z,8.05
2023-04-20T15:54:01.654Z,8.55
2023-04-20T15:56:29.023Z,7.65
2023-04-20T15:58:56.665Z,7.25
2023-04-20T16:01:23.990Z,7.43
2023-04-20T16:03:51.913Z,13.45
2023-04-20T16:06:19.330Z,5.28
2023-04-20T16:08:49.632Z,7.28
2023-04-20T16:11:17.216Z,5.05
2023-04-20T16:13:44.900Z,7.47
2023-04-20T16:16:12.216Z,9.30
2023-04-20T16:18:39.860Z,6.72
2023-04-20T16:21:07.264Z,7.07
2023-04-20T16:23:34.873Z,8.00
2023-04-20T16:26:02.127Z,6.28
2023-04-20T16:28:29.905Z,10.38
2023-04-20T16:30:57.507Z,10.00
2023-04-20T16:33:25.596Z,6.20
2023-04-20T16:35:53.042Z,9.60
2023-04-20T16:38:20.805Z,7.20
2023-04-20T16:40:48.041Z,6.13
2023-04-20T16:43:15.992Z,6.63
2023-04-20T16:45:43.391Z,5.88
2023-04-20T16:48:11.153Z,7.35
2023-04-20T16:50:40.320Z,8.23
2023-04-20T16:53:10.115Z,7.25
2023-04-20T16:55:37.450Z,6.47
2023-04-20T16:58:05.169Z,8.27
2023-04-20T17:00:33.844Z,7.97
2023-04-20T17:03:06.289Z,12.30
2023-04-20T17:05:33.756Z,9.82
2023-04-20T17:08:01.350Z,9.98
2023-04-20T17:10:28.687Z,9.63
2023-04-20T17:12:56.325Z,14.90
2023-04-20T17:15:23.739Z,9.55
2023-04-20T17:17:51.694Z,8.25
2023-04-20T17:20:19.338Z,11.93
2023-04-20T17:22:47.006Z,8.48
2023-04-20T17:25:14.401Z,13.73
2023-04-20T17:27:42.519Z,11.98
2023-04-20T17:30:11.074Z,18.05
2023-04-20T17:32:38.729Z,8.63
2023-04-20T17:35:06.656Z,13.10
2023-04-20T17:37:36.626Z,9.63
2023-04-20T17:40:06.381Z,7.90
2023-04-20T17:42:34.136Z,10.75
2023-04-20T17:45:01.436Z,11.43
2023-04-20T17:47:31.254Z,13.23
2023-04-20T17:50:00.042Z,10.50
2023-04-20T17:52:27.821Z,10.70
2023-04-20T17:54:55.413Z,13.52
2023-04-20T17:57:23.154Z,9.13
2023-04-20T17:59:50.830Z,8.43
2023-04-20T18:02:18.542Z,26.13
2023-04-20T18:04:46.277Z,12.15
2023-04-20T18:07:16.861Z,9.18
2023-04-20T18:09:44.471Z,14.18
2023-04-20T18:12:12.068Z,14.07
2023-04-20T18:14:42.674Z,10.43
2023-04-20T18:17:10.430Z,11.68
2023-04-20T18:19:37.821Z,7.90
2023-04-20T18:22:05.613Z,12.30
2023-04-20T18:24:33.035Z,11.60
2023-04-20T18:27:02.110Z,11.73
2023-04-20T18:29:30.028Z,9.65
2023-04-20T18:31:59.515Z,12.25
2023-04-20T18:34:32.162Z,13.15
2023-04-20T18:37:00.000Z,14.48
2023-04-20T18:39:27.401Z,17.15
2023-04-20T18:41:55.119Z,17.85
2023-04-20T18:44:22.764Z,15.50
2023-04-20T18:46:50.597Z,13.88
2023-04-20T18:49:17.957Z,9.27
2023-04-20T18:51:45.676Z,12.88
2023-04-20T18:54:12.934Z,15.02
2023-04-20T18:56:40.859Z,14.63
2023-04-20T18:59:09.477Z,18.73
2023-04-20T19:01:40.707Z,15.88
2023-04-20T19:04:09.014Z,15.77
2023-04-20T19:06:36.876Z,14.35
2023-04-20T19:09:05.973Z,15.30
2023-04-20T19:11:35.835Z,17.42
2023-04-20T19:14:04.509Z,16.60
2023-04-20T19:16:34.053Z,16.13
2023-04-20T19:19:02.008Z,17.15
2023-04-20T19:21:30.103Z,16.63
2023-04-20T19:23:57.445Z,19.48
2023-04-20T19:26:25.129Z,20.00
2023-04-20T19:28:52.754Z,20.02
2023-04-20T19:31:20.476Z,21.33
2023-04-20T19:33:47.783Z,30.63
2023-04-20T19:36:15.528Z,28.40
2023-04-20T19:38:42.858Z,30.40
2023-04-20T19:41:10.553Z,26.25
2023-04-20T19:43:37.842Z,24.45
2023-04-20T19:46:09.674Z,22.63
2023-04-20T19:48:37.246Z,19.83
2023-04-20T19:51:06.264Z,23.25
2023-04-20T19:53:34.327Z,20.70
2023-04-20T19:56:04.180Z,19.58
2023-04-20T19:58:33.009Z,28.48
2023-04-20T20:01:00.666Z,29.33
2023-04-20T20:03:28.605Z,26.58
2023-04-20T20:05:56.657Z,25.30
2023-04-20T20:08:24.078Z,19.75
2023-04-20T20:10:51.850Z,22.10
2023-04-20T20:13:19.324Z,22.02
2023-04-20T20:15:46.941Z,21.33
2023-04-20T20:18:14.355Z,22.13
2023-04-20T20:20:41.978Z,18.10
2023-04-20T20:23:09.326Z,20.92
2023-04-20T20:25:39.042Z,19.75
2023-04-20T20:28:06.366Z,19.20
2023-04-20T20:30:33.985Z,20.38
2023-04-20T20:33:01.266Z,23.80
2023-04-20T20:35:33.063Z,20.73
2023-04-20T20:38:00.551Z,21.65
2023-04-20T20:40:28.188Z,25.45
2023-04-20T20:42:55.480Z,21.58
2023-04-20T20:45:23.488Z,20.42
2023-04-20T20:47:51.016Z,18.98
2023-04-20T20:50:19.597Z,20.65
2023-04-20T20:52:46.845Z,26.05
2023-04-20T20:55:14.967Z,30.08
2023-04-20T20:57:42.470Z,25.67
2023-04-20T21:00:11.398Z,26.50
2023-04-20T21:02:38.930Z,22.42
2023-04-20T21:05:07.344Z,23.67
2023-04-20T21:07:34.579Z,25.48
2023-04-20T21:10:02.453Z,21.88
2023-04-20T21:12:29.775Z,23.27
2023-04-20T21:14:57.395Z,27.15
2023-04-20T21:17:24.774Z,25.40
2023-04-20T21:19:52.385Z,20.65
2023-04-20T21:22:21.407Z,25.90
2023-04-20T21:24:48.929Z,25.02
2023-04-20T21:27:16.136Z,22.50
2023-04-20T21:29:43.695Z,27.95
2023-04-20T21:32:17.514Z,27.20
2023-04-20T21:34:45.503Z,25.08
2023-04-20T21:37:12.864Z,24.52
2023-04-20T21:39:40.497Z,27.08
2023-04-20T21:42:07.820Z,20.48
2023-04-20T21:44:35.758Z,28.70
2023-04-20T21:47:03.146Z,27.05
2023-04-20T21:49:30.899Z,25.83
2023-04-20T21:51:58.149Z,23.98
2023-04-20T21:54:25.727Z,22.42
2023-04-20T21:56:53.021Z,28.20
2023-04-20T21:59:20.844Z,26.08
2023-04-20T22:01:48.329Z,23.50
2023-04-20T22:04:16.924Z,28.00
2023-04-20T22:06:44.428Z,31.92
2023-04-20T22:09:12.081Z,26.23
2023-04-20T22:11:40.414Z,25.63
2023-04-20T22:14:07.982Z,37.30
2023-04-20T22:16:35.460Z,36.45
2023-04-20T22:19:04.353Z,25.85
2023-04-20T22:21:32.229Z,28.63
2023-04-20T22:23:59.923Z,27.92
2023-04-20T22:26:27.355Z,29.48
2023-04-20T22:28:54.919Z,27.55
2023-04-20T22:31:22.289Z,20.65
2023-04-20T22:33:49.863Z,24.33
2023-04-20T22:36:17.266Z,25.23
2023-04-20T22:38:44.865Z,25.65
2023-04-20T22:41:12.158Z,26.58
2023-04-20T22:43:39.722Z,29.42
2023-04-20T22:46:07.008Z,32.58
2023-04-20T22:48:35.067Z,23.27
2023-04-20T22:51:02.488Z,28.55
2023-04-20T22:53:30.238Z,24.92
2023-04-20T22:56:06.229Z,25.90
2023-04-20T22:58:34.499Z,25.33
2023-04-20T23:01:02.630Z,27.40
2023-04-20T23:03:30.497Z,25.23
2023-04-20T23:05:59.280Z,25.80
2023-04-20T23:08:28.436Z,26.10
2023-04-20T23:10:55.647Z,26.23
2023-04-20T23:13:26.337Z,22.17
2023-04-20T23:15:53.870Z,24.00
2023-04-20T23:18:21.574Z,22.73
2023-04-20T23:20:48.848Z,21.20
2023-04-20T23:23:16.347Z,22.67
2023-04-20T23:25:43.600Z,25.48
2023-04-20T23:28:11.208Z,30.58
2023-04-20T23:30:38.557Z,24.95
2023-04-20T23:33:06.162Z,25.73
2023-04-20T23:35:33.863Z,21.25
2023-04-20T23:38:02.130Z,22.02
2023-04-20T23:40:29.511Z,24.95
2023-04-20T23:42:57.321Z,23.50
2023-04-20T23:45:25.038Z,25.00
2023-04-20T23:47:52.661Z,28.15
2023-04-20T23:50:20.131Z,25.17
2023-04-20T23:52:47.717Z,23.73
2023-04-20T23:55:14.942Z,25.35
2023-04-20T23:57:42.461Z,23.83
